Time;durP1;ratioP1;P1;durP2;ratioP2;P2;SDS_P1;SDS_P2;PMS_P1;PMS_P2;Temp;Humidity;BMP_temperature;BMP_pressure;BME280_temperature;BME280_humidity;BME280_pressure;Samples;Min_cycle;Max_cycle;Signal;HPM_P1;HPM_P2
2022/10/08 00:01:20;;;;;;;;;;;23.30;51.20;;;;;;1590140;74;711;-70
2022/10/08 00:03:22;;;;;;;;;;;23.20;51.10;;;;;;1551200;75;685;-70
2022/10/08 00:05:24;;;;;;;;;;;23.30;51.20;;;;;;1534345;75;1123;-70
2022/10/08 00:07:26;;;;;;;;;;;23.30;51.30;;;;;;1556134;75;749;-69
2022/10/08 00:09:28;;;;;;;;;;;23.30;51.20;;;;;;1559859;75;796;-70
2022/10/08 00:11:30;;;;;;;;;;;23.30;51.30;;;;;;1555699;75;1936;-71
2022/10/08 00:13:39;;;;;;;;;;;23.10;51.30;;;;;;1593052;74;762;-70
2022/10/08 00:15:36;;;;;;;;;;;23.20;51.10;;;;;;1547389;75;1668;-70
2022/10/08 00:17:38;;;;;;;;;;;23.30;51.30;;;;;;1559682;75;793;-70
2022/10/08 00:19:40;;;;;;;;;;;23.20;51.20;;;;;;1575983;74;757;-70
2022/10/08 00:21:43;;;;;;;;;;;23.30;51.30;;;;;;1564857;74;640;-71
2022/10/08 00:23:49;;;;;;;;;;;23.30;51.40;;;;;;1551485;75;699;-70
2022/10/08 00:25:48;;;;;;;;;;;23.20;51.40;;;;;;1550334;75;1688;-68
2022/10/08 00:27:50;;;;;;;;;;;23.20;51.40;;;;;;1541156;75;732;-68
2022/10/08 00:29:52;;;;;;;;;;;23.20;51.30;;;;;;1568534;75;771;-68
2022/10/08 00:31:54;;;;;;;;;;;23.30;51.30;;;;;;1558149;75;1910;-69
2022/10/08 00:33:57;;;;;;;;;;;23.30;51.40;;;;;;1551882;75;758;-68
2022/10/08 00:36:05;;;;;;;;;;;23.30;51.60;;;;;;1562875;75;1167;-69
2022/10/08 00:38:07;;;;;;;;;;;23.20;51.50;;;;;;1566694;75;631;-69
2022/10/08 00:40:09;;;;;;;;;;;23.20;51.60;;;;;;1564987;75;1544;-69
2022/10/08 00:42:11;;;;;;;;;;;23.10;51.80;;;;;;1558243;75;809;-69
2022/10/08 00:44:31;;;;;;;;;;;23.10;51.80;;;;;;1563230;74;573;-70
2022/10/08 00:46:35;;;;;;;;;;;23.10;52.00;;;;;;1564973;74;1195;-69
2022/10/08 00:48:37;;;;;;;;;;;23.10;52.20;;;;;;1565628;75;752;-70
2022/10/08 00:50:39;;;;;;;;;;;23.10;52.20;;;;;;1563330;75;1915;-70
2022/10/08 00:52:47;;;;;;;;;;;23.00;52.20;;;;;;1568273;74;709;-71
2022/10/08 00:54:50;;;;;;;;;;;23.00;52.20;;;;;;1564331;75;875;-70
2022/10/08 00:56:52;;;;;;;;;;;23.00;52.20;;;;;;1524054;76;1059;-69
2022/10/08 00:58:54;;;;;;;;;;;23.00;52.20;;;;;;1568957;75;679;-68
2022/10/08 01:00:56;;;;;;;;;;;23.00;52.30;;;;;;1562552;75;926;-69
2022/10/08 01:02:59;;;;;;;;;;;23.10;52.40;;;;;;1552789;75;625;-70
2022/10/08 01:05:03;;;;;;;;;;;23.00;52.20;;;;;;1560431;75;694;-67
2022/10/08 01:07:07;;;;;;;;;;;23.10;52.30;;;;;;1558756;75;1552;-69
2022/10/08 01:09:13;;;;;;;;;;;23.10;52.30;;;;;;1567220;75;810;-69
2022/10/08 01:11:19;;;;;;;;;;;23.10;52.30;;;;;;1566176;75;1917;-71
2022/10/08 01:13:26;;;;;;;;;;;23.10;52.30;;;;;;1556572;75;2268;-71
2022/10/08 01:15:38;;;;;;;;;;;23.10;52.20;;;;;;1559479;74;1844;-71
2022/10/08 01:17:51;;;;;;;;;;;23.10;52.10;;;;;;1560787;75;807;-70
2022/10/08 01:20:01;;;;;;;;;;;23.10;52.10;;;;;;1553590;75;1672;-70
2022/10/08 01:22:04;;;;;;;;;;;23.10;52.10;;;;;;1564233;75;1867;-69
2022/10/08 01:24:10;;;;;;;;;;;23.20;52.10;;;;;;1567333;75;980;-70
2022/10/08 01:26:30;;;;;;;;;;;23.20;52.00;;;;;;1565688;75;1148;-69
2022/10/08 01:28:35;;;;;;;;;;;23.20;51.80;;;;;;1565263;75;758;-70
2022/10/08 01:30:38;;;;;;;;;;;23.10;51.90;;;;;;1534727;76;695;-70
2022/10/08 01:32:42;;;;;;;;;;;23.20;52.00;;;;;;1563399;74;1890;-70
2022/10/08 01:34:44;;;;;;;;;;;23.10;52.00;;;;;;1549705;74;997;-67
2022/10/08 01:36:47;;;;;;;;;;;23.10;52.20;;;;;;1566746;74;1634;-70
2022/10/08 01:38:51;;;;;;;;;;;23.10;52.30;;;;;;1592632;74;759;-71
2022/10/08 01:40:57;;;;;;;;;;;23.00;52.10;;;;;;1540094;75;657;-70
2022/10/08 01:42:56;;;;;;;;;;;23.00;52.10;;;;;;1582362;74;1655;-70
2022/10/08 01:44:59;;;;;;;;;;;23.10;52.30;;;;;;1533048;75;878;-69
2022/10/08 01:47:02;;;;;;;;;;;23.00;52.30;;;;;;1549184;75;1226;-70
2022/10/08 01:49:06;;;;;;;;;;;22.90;52.40;;;;;;1552273;75;764;-71
2022/10/08 01:51:16;;;;;;;;;;;23.00;52.60;;;;;;1569459;74;1916;-71
2022/10/08 01:53:18;;;;;;;;;;;23.00;52.50;;;;;;1570550;74;694;-70
2022/10/08 01:55:24;;;;;;;;;;;22.90;52.60;;;;;;1593235;74;1173;-71
2022/10/08 01:57:26;;;;;;;;;;;22.90;52.80;;;;;;1562198;75;1620;-70
2022/10/08 01:59:31;;;;;;;;;;;22.90;52.90;;;;;;1580955;74;710;-70
2022/10/08 02:01:34;;;;;;;;;;;23.00;52.80;;;;;;1571141;74;1819;-69
2022/10/08 02:03:36;;;;;;;;;;;23.00;52.80;;;;;;1547163;75;1607;-70
2022/10/08 02:05:40;;;;;;;;;;;22.90;52.90;;;;;;1560696;74;1137;-69
2022/10/08 02:07:42;;;;;;;;;;;22.90;52.90;;;;;;1561483;75;960;-69
2022/10/08 02:09:45;;;;;;;;;;;22.90;52.90;;;;;;1562227;75;807;-69
2022/10/08 02:11:47;;;;;;;;;;;22.90;52.90;;;;;;1572950;75;1933;-70
2022/10/08 02:13:49;;;;;;;;;;;22.90;52.90;;;;;;1566872;75;821;-70
2022/10/08 02:15:53;;;;;;;;;;;22.90;52.90;;;;;;1570275;75;1176;-68
2022/10/08 02:18:06;;;;;;;;;;;22.80;52.80;;;;;;1565119;75;1963;-69
2022/10/08 02:20:13;;;;;;;;;;;22.90;52.90;;;;;;1567981;75;701;-70
2022/10/08 02:22:15;;;;;;;;;;;22.90;52.80;;;;;;1564840;75;734;-69
2022/10/08 02:24:18;;;;;;;;;;;22.80;52.80;;;;;;1572091;75;801;-69
2022/10/08 02:26:21;;;;;;;;;;;22.90;52.90;;;;;;1568066;75;1185;-69
2022/10/08 02:28:34;;;;;;;;;;;22.90;53.00;;;;;;1563920;75;787;-71
2022/10/08 02:30:40;;;;;;;;;;;22.90;52.90;;;;;;1564651;75;1914;-70
2022/10/08 02:32:47;;;;;;;;;;;22.90;52.90;;;;;;1564289;75;1934;-70
2022/10/08 02:34:56;;;;;;;;;;;22.90;52.90;;;;;;1545675;75;2105;-70
2022/10/08 02:37:06;;;;;;;;;;;22.90;52.90;;;;;;1551685;74;1138;-70
2022/10/08 02:39:08;;;;;;;;;;;22.90;52.80;;;;;;1547117;75;1003;-69
2022/10/08 02:41:10;;;;;;;;;;;23.00;52.80;;;;;;1556592;75;668;-69
2022/10/08 02:43:13;;;;;;;;;;;23.00;52.70;;;;;;1560629;75;750;-72
2022/10/08 02:45:22;;;;;;;;;;;23.10;52.90;;;;;;1555720;74;1203;-72
2022/10/08 02:47:25;;;;;;;;;;;23.00;52.60;;;;;;1567922;75;863;-70
2022/10/08 02:49:28;;;;;;;;;;;23.10;52.60;;;;;;1550790;75;638;-70
2022/10/08 02:51:30;;;;;;;;;;;23.10;52.50;;;;;;1560198;74;1942;-70
2022/10/08 02:53:33;;;;;;;;;;;23.10;52.60;;;;;;1551089;75;779;-70
2022/10/08 02:55:39;;;;;;;;;;;23.00;52.60;;;;;;1567464;75;1132;-70
2022/10/08 02:57:42;;;;;;;;;;;23.00;52.70;;;;;;1572006;75;1950;-70
2022/10/08 02:59:44;;;;;;;;;;;23.00;52.70;;;;;;1570162;75;1542;-69
2022/10/08 03:01:48;;;;;;;;;;;23.00;52.80;;;;;;1549767;74;753;-70
2022/10/08 03:03:52;;;;;;;;;;;23.00;52.70;;;;;;1561469;74;796;-70
2022/10/08 03:05:54;;;;;;;;;;;23.10;52.60;;;;;;1558377;74;1175;-70
2022/10/08 03:07:56;;;;;;;;;;;23.10;52.50;;;;;;1567809;75;781;-72
2022/10/08 03:09:58;;;;;;;;;;;23.20;52.40;;;;;;1550994;75;813;-70
2022/10/08 03:11:59;;;;;;;;;;;23.20;52.30;;;;;;1556400;75;1923;-70
2022/10/08 03:14:02;;;;;;;;;;;23.10;52.40;;;;;;1560458;75;1435;-70
2022/10/08 03:16:05;;;;;;;;;;;23.10;52.60;;;;;;1553591;74;1172;-70
2022/10/08 03:18:07;;;;;;;;;;;23.10;52.60;;;;;;1552757;75;726;-69
2022/10/08 03:20:09;;;;;;;;;;;23.10;52.60;;;;;;1564577;75;795;-70
2022/10/08 03:22:11;;;;;;;;;;;23.20;52.50;;;;;;1564548;75;656;-70
2022/10/08 03:24:13;;;;;;;;;;;23.20;52.40;;;;;;1549451;75;723;-71
2022/10/08 03:26:17;;;;;;;;;;;23.20;52.30;;;;;;1563405;75;1145;-70
2022/10/08 03:28:19;;;;;;;;;;;23.20;52.20;;;;;;1561835;75;1442;-70
2022/10/08 03:30:20;;;;;;;;;;;23.30;52.20;;;;;;1568742;75;771;-70
2022/10/08 03:32:23;;;;;;;;;;;23.20;52.20;;;;;;1553423;75;1932;-68
2022/10/08 03:34:25;;;;;;;;;;;23.20;52.30;;;;;;1562269;75;695;-70
2022/10/08 03:36:27;;;;;;;;;;;23.20;52.40;;;;;;1555614;74;1084;-70
2022/10/08 03:38:29;;;;;;;;;;;23.10;52.50;;;;;;1537649;76;1231;-71
2022/10/08 03:40:31;;;;;;;;;;;23.20;52.50;;;;;;1570772;74;684;-71
2022/10/08 03:42:32;;;;;;;;;;;23.10;52.60;;;;;;1570784;74;1556;-71
2022/10/08 03:44:34;;;;;;;;;;;23.10;52.70;;;;;;1562591;74;782;-71
2022/10/08 03:46:36;;;;;;;;;;;23.10;52.80;;;;;;1577076;74;1183;-71
2022/10/08 03:48:38;;;;;;;;;;;23.10;52.80;;;;;;1584821;74;883;-71
2022/10/08 03:50:42;;;;;;;;;;;23.10;52.80;;;;;;1583247;74;728;-70
2022/10/08 03:52:43;;;;;;;;;;;23.10;52.70;;;;;;1580592;74;1928;-71
2022/10/08 03:54:45;;;;;;;;;;;23.10;52.80;;;;;;1566993;74;806;-70
2022/10/08 03:56:47;;;;;;;;;;;23.10;52.80;;;;;;1581053;74;1618;-69
2022/10/08 03:58:51;;;;;;;;;;;23.00;52.70;;;;;;1566729;74;741;-70
2022/10/08 04:00:56;;;;;;;;;;;23.10;52.90;;;;;;1568624;74;703;-71
2022/10/08 04:02:58;;;;;;;;;;;23.00;52.80;;;;;;1565399;74;714;-71
2022/10/08 04:05:00;;;;;;;;;;;23.00;52.90;;;;;;1580232;74;721;-69
2022/10/08 04:07:02;;;;;;;;;;;23.00;52.90;;;;;;1576410;74;1117;-68
2022/10/08 04:09:04;;;;;;;;;;;22.90;53.10;;;;;;1578491;74;749;-69
2022/10/08 04:11:06;;;;;;;;;;;22.90;53.20;;;;;;1577129;74;1433;-70
2022/10/08 04:13:08;;;;;;;;;;;23.00;53.30;;;;;;1582378;74;1922;-70
2022/10/08 04:15:10;;;;;;;;;;;22.90;53.40;;;;;;1577073;74;794;-70
2022/10/08 04:17:12;;;;;;;;;;;22.90;53.30;;;;;;1585963;74;707;-70
2022/10/08 04:19:16;;;;;;;;;;;22.90;53.30;;;;;;1576015;74;655;-70
2022/10/08 04:21:17;;;;;;;;;;;22.90;53.40;;;;;;1581742;74;1570;-71
2022/10/08 04:23:19;;;;;;;;;;;22.90;53.20;;;;;;1587244;74;805;-71
2022/10/08 04:25:21;;;;;;;;;;;22.90;53.30;;;;;;1569298;75;1732;-72
2022/10/08 04:27:23;;;;;;;;;;;22.90;53.30;;;;;;1584077;74;785;-72
2022/10/08 04:29:25;;;;;;;;;;;23.00;53.20;;;;;;1568187;74;818;-71
2022/10/08 04:31:27;;;;;;;;;;;23.00;53.10;;;;;;1589373;74;558;-71
2022/10/08 04:33:29;;;;;;;;;;;23.00;53.20;;;;;;1576830;74;1945;-72
2022/10/08 04:35:31;;;;;;;;;;;23.00;53.10;;;;;;1576757;74;1112;-72
2022/10/08 04:37:33;;;;;;;;;;;22.90;53.20;;;;;;1566350;74;804;-71
2022/10/08 04:39:35;;;;;;;;;;;22.90;53.30;;;;;;1585533;74;1632;-71
2022/10/08 04:41:37;;;;;;;;;;;22.90;53.30;;;;;;1582793;74;737;-71
2022/10/08 04:43:39;;;;;;;;;;;23.00;53.40;;;;;;1579511;74;738;-70
2022/10/08 04:45:42;;;;;;;;;;;22.90;53.40;;;;;;1571495;74;1192;-70
2022/10/08 04:47:44;;;;;;;;;;;22.90;53.30;;;;;;1568802;74;1817;-70
2022/10/08 04:49:46;;;;;;;;;;;22.90;53.30;;;;;;1572785;74;788;-70
2022/10/08 04:51:48;;;;;;;;;;;22.90;53.30;;;;;;1580450;74;743;-71
2022/10/08 04:53:50;;;;;;;;;;;22.90;53.40;;;;;;1574607;74;1912;-70
2022/10/08 04:55:55;;;;;;;;;;;22.90;53.40;;;;;;1582851;74;1166;-70
2022/10/08 04:57:56;;;;;;;;;;;22.90;53.40;;;;;;1578856;74;734;-71
2022/10/08 04:59:58;;;;;;;;;;;22.90;53.40;;;;;;1579879;74;772;-71
2022/10/08 05:02:00;;;;;;;;;;;22.90;53.40;;;;;;1574891;74;772;-71
2022/10/08 05:04:02;;;;;;;;;;;23.00;53.40;;;;;;1577285;74;741;-70
2022/10/08 05:06:04;;;;;;;;;;;23.00;53.40;;;;;;1575101;73;1633;-69
2022/10/08 05:08:06;;;;;;;;;;;22.90;53.40;;;;;;1578478;74;785;-68
2022/10/08 05:10:08;;;;;;;;;;;22.90;53.40;;;;;;1572155;74;743;-68
2022/10/08 05:12:10;;;;;;;;;;;23.10;53.10;;;;;;1579802;74;1935;-68
2022/10/08 05:14:12;;;;;;;;;;;23.10;53.00;;;;;;1578006;74;753;-68
2022/10/08 05:16:16;;;;;;;;;;;23.10;52.90;;;;;;1577907;74;1140;-67
2022/10/08 05:18:18;;;;;;;;;;;23.00;52.90;;;;;;1553435;75;800;-67
2022/10/08 05:20:19;;;;;;;;;;;23.00;53.00;;;;;;1546942;75;1538;-69
2022/10/08 05:22:21;;;;;;;;;;;23.00;53.10;;;;;;1576331;74;717;-71
2022/10/08 05:24:23;;;;;;;;;;;22.80;53.20;;;;;;1589366;74;797;-72
2022/10/08 05:26:26;;;;;;;;;;;22.90;53.30;;;;;;1556159;75;1160;-71
2022/10/08 05:28:28;;;;;;;;;;;23.00;53.00;;;;;;1570594;74;768;-70
2022/10/08 05:30:30;;;;;;;;;;;23.10;52.90;;;;;;1545641;75;880;-69
2022/10/08 05:32:32;;;;;;;;;;;23.10;52.90;;;;;;1550043;75;1933;-70
2022/10/08 05:34:34;;;;;;;;;;;23.10;53.10;;;;;;1548653;75;1575;-70
2022/10/08 05:36:36;;;;;;;;;;;23.10;53.00;;;;;;1586574;74;1166;-72
2022/10/08 05:38:38;;;;;;;;;;;23.20;52.90;;;;;;1550118;75;844;-70
2022/10/08 05:40:39;;;;;;;;;;;23.20;53.00;;;;;;1590910;74;628;-71
2022/10/08 05:42:41;;;;;;;;;;;23.00;53.30;;;;;;1552755;75;782;-67
2022/10/08 05:44:43;;;;;;;;;;;22.90;53.70;;;;;;1542306;75;608;-67
2022/10/08 05:46:45;;;;;;;;;;;22.90;53.60;;;;;;1552751;75;1224;-68
2022/10/08 05:48:47;;;;;;;;;;;23.10;53.40;;;;;;1565272;75;1590;-68
2022/10/08 05:50:49;;;;;;;;;;;23.10;53.10;;;;;;1542140;75;729;-68
2022/10/08 05:52:51;;;;;;;;;;;23.00;52.90;;;;;;1576302;74;1930;-68
2022/10/08 05:54:52;;;;;;;;;;;23.10;53.10;;;;;;1537689;75;819;-66
2022/10/08 05:56:54;;;;;;;;;;;23.10;53.00;;;;;;1566705;74;1133;-68
2022/10/08 05:58:56;;;;;;;;;;;23.10;52.80;;;;;;1579575;74;690;-67
2022/10/08 06:00:59;;;;;;;;;;;23.10;52.80;;;;;;1562402;75;745;-68
2022/10/08 06:03:01;;;;;;;;;;;23.00;52.70;;;;;;1581717;74;1586;-68
2022/10/08 06:05:02;;;;;;;;;;;22.90;52.80;;;;;;1579835;74;790;-68
2022/10/08 06:07:04;;;;;;;;;;;23.00;52.80;;;;;;1547238;75;1094;-68
2022/10/08 06:09:06;;;;;;;;;;;22.90;52.80;;;;;;1544864;75;776;-68
2022/10/08 06:11:08;;;;;;;;;;;22.90;52.80;;;;;;1577310;74;755;-67
2022/10/08 06:13:10;;;;;;;;;;;22.80;52.70;;;;;;1577500;74;1958;-67
2022/10/08 06:15:12;;;;;;;;;;;22.90;52.90;;;;;;1574941;74;1174;-67
2022/10/08 06:17:14;;;;;;;;;;;22.90;52.90;;;;;;1572690;74;1540;-68
2022/10/08 06:19:16;;;;;;;;;;;22.90;52.90;;;;;;1581320;74;695;-67
2022/10/08 06:21:18;;;;;;;;;;;22.90;52.80;;;;;;1573211;74;661;-68
2022/10/08 06:23:21;;;;;;;;;;;22.90;52.80;;;;;;1574002;74;750;-68
2022/10/08 06:25:23;;;;;;;;;;;22.90;52.80;;;;;;1578774;74;1152;-67
2022/10/08 06:27:24;;;;;;;;;;;22.90;52.80;;;;;;1587179;74;646;-67
2022/10/08 06:29:26;;;;;;;;;;;22.90;52.80;;;;;;1585240;74;736;-68
2022/10/08 06:31:28;;;;;;;;;;;22.90;52.80;;;;;;1563222;75;1579;-68
2022/10/08 06:33:30;;;;;;;;;;;22.90;52.80;;;;;;1588668;74;1937;-69
2022/10/08 06:35:32;;;;;;;;;;;22.90;52.80;;;;;;1556410;74;1147;-68
2022/10/08 06:37:34;;;;;;;;;;;22.90;52.70;;;;;;1553653;75;798;-67
2022/10/08 06:39:36;;;;;;;;;;;22.90;52.80;;;;;;1548830;75;781;-69
2022/10/08 06:41:38;;;;;;;;;;;22.90;52.70;;;;;;1549882;75;793;-67
2022/10/08 06:43:40;;;;;;;;;;;22.90;52.70;;;;;;1577139;74;701;-67
2022/10/08 06:45:42;;;;;;;;;;;22.90;52.70;;;;;;1556043;75;1530;-68
2022/10/08 06:47:44;;;;;;;;;;;23.00;52.60;;;;;;1580383;74;688;-67
2022/10/08 06:49:45;;;;;;;;;;;22.90;52.60;;;;;;1582619;74;743;-68
2022/10/08 06:51:47;;;;;;;;;;;22.90;52.60;;;;;;1570371;75;662;-67
2022/10/08 06:53:53;;;;;;;;;;;22.90;52.60;;;;;;1567672;75;1940;-67
2022/10/08 06:55:56;;;;;;;;;;;22.90;52.60;;;;;;1566351;74;1214;-67
2022/10/08 06:57:58;;;;;;;;;;;22.90;52.60;;;;;;1565079;74;766;-68
2022/10/08 07:00:00;;;;;;;;;;;22.90;52.60;;;;;;1558159;75;1547;-68
2022/10/08 07:02:02;;;;;;;;;;;23.00;52.60;;;;;;1557371;75;802;-67
2022/10/08 07:04:04;;;;;;;;;;;22.90;52.60;;;;;;1562477;75;719;-67
2022/10/08 07:06:07;;;;;;;;;;;22.90;52.70;;;;;;1573154;75;1159;-68
2022/10/08 07:08:09;;;;;;;;;;;22.90;52.70;;;;;;1567077;75;744;-67
2022/10/08 07:10:11;;;;;;;;;;;22.90;52.70;;;;;;1565776;75;749;-67
2022/10/08 07:12:13;;;;;;;;;;;22.90;52.60;;;;;;1559997;74;805;-67
2022/10/08 07:14:15;;;;;;;;;;;22.90;52.70;;;;;;1565502;75;1926;-67
2022/10/08 07:16:20;;;;;;;;;;;22.90;52.70;;;;;;1560470;75;1167;-67
2022/10/08 07:18:22;;;;;;;;;;;22.90;52.60;;;;;;1567863;75;794;-68
2022/10/08 07:20:23;;;;;;;;;;;22.90;52.60;;;;;;1566874;75;798;-67
2022/10/08 07:22:25;;;;;;;;;;;22.90;52.60;;;;;;1564545;75;851;-67
2022/10/08 07:24:27;;;;;;;;;;;22.90;52.60;;;;;;1561110;75;678;-67
2022/10/08 07:26:31;;;;;;;;;;;22.90;52.60;;;;;;1561268;75;1127;-67
2022/10/08 07:28:33;;;;;;;;;;;22.90;52.60;;;;;;1571438;75;1646;-68
2022/10/08 07:30:35;;;;;;;;;;;22.90;52.60;;;;;;1565058;74;926;-67
2022/10/08 07:32:37;;;;;;;;;;;23.00;52.50;;;;;;1561757;75;686;-67
2022/10/08 07:34:39;;;;;;;;;;;23.00;52.50;;;;;;1570678;75;1939;-68
2022/10/08 07:36:41;;;;;;;;;;;22.90;52.50;;;;;;1566973;74;1159;-68
2022/10/08 07:38:43;;;;;;;;;;;22.90;52.60;;;;;;1578890;74;729;-67
2022/10/08 07:40:47;;;;;;;;;;;22.90;52.60;;;;;;1552381;75;1335;-67
2022/10/08 07:42:50;;;;;;;;;;;22.90;52.60;;;;;;1584361;74;660;-67
2022/10/08 07:44:52;;;;;;;;;;;22.90;52.60;;;;;;1560403;75;787;-68
2022/10/08 07:46:54;;;;;;;;;;;23.00;52.50;;;;;;1566039;74;1176;-68
2022/10/08 07:48:57;;;;;;;;;;;22.90;52.50;;;;;;1560040;75;798;-67
2022/10/08 07:51:09;;;;;;;;;;;23.00;52.50;;;;;;1564394;75;782;-67
2022/10/08 07:53:11;;;;;;;;;;;22.90;52.50;;;;;;1569357;75;1927;-67
2022/10/08 07:55:13;;;;;;;;;;;22.90;52.50;;;;;;1567488;74;1599;-67
2022/10/08 07:57:15;;;;;;;;;;;23.00;52.60;;;;;;1573669;74;792;-68
2022/10/08 07:59:17;;;;;;;;;;;22.90;52.50;;;;;;1574401;74;813;-68
2022/10/08 08:01:20;;;;;;;;;;;22.90;52.60;;;;;;1568939;74;752;-68
2022/10/08 08:03:21;;;;;;;;;;;22.90;52.50;;;;;;1569927;75;775;-70
2022/10/08 08:05:23;;;;;;;;;;;22.90;52.70;;;;;;1567075;75;1141;-69
2022/10/08 08:07:25;;;;;;;;;;;22.90;52.80;;;;;;1568155;74;778;-68
2022/10/08 08:09:28;;;;;;;;;;;22.90;52.60;;;;;;1573637;75;1552;-66
2022/10/08 08:11:30;;;;;;;;;;;22.90;52.60;;;;;;1573437;75;774;-69
2022/10/08 08:13:33;;;;;;;;;;;22.90;52.70;;;;;;1573594;74;1942;-69
2022/10/08 08:15:34;;;;;;;;;;;22.80;52.80;;;;;;1566050;75;1178;-67
2022/10/08 08:17:36;;;;;;;;;;;22.80;52.90;;;;;;1575914;75;785;-67
2022/10/08 08:19:39;;;;;;;;;;;22.80;53.00;;;;;;1563884;75;755;-69
2022/10/08 08:21:41;;;;;;;;;;;22.80;53.00;;;;;;1570972;75;741;-68
2022/10/08 08:23:43;;;;;;;;;;;22.90;52.90;;;;;;1577261;75;1347;-68
2022/10/08 08:25:45;;;;;;;;;;;22.90;52.70;;;;;;1564940;74;1117;-69
2022/10/08 08:27:47;;;;;;;;;;;23.10;52.60;;;;;;1568579;74;778;-69
2022/10/08 08:29:49;;;;;;;;;;;23.10;52.30;;;;;;1568383;74;790;-69
2022/10/08 08:31:51;;;;;;;;;;;23.10;52.30;;;;;;1564854;74;844;-69
2022/10/08 08:33:54;;;;;;;;;;;23.10;52.10;;;;;;1568321;74;1933;-69
2022/10/08 08:35:55;;;;;;;;;;;23.10;52.10;;;;;;1573169;74;1155;-69
2022/10/08 08:37:57;;;;;;;;;;;23.10;52.10;;;;;;1569963;74;1550;-69
2022/10/08 08:39:59;;;;;;;;;;;23.10;52.10;;;;;;1566493;74;793;-69
2022/10/08 08:42:05;;;;;;;;;;;23.10;52.00;;;;;;1571640;74;746;-69
2022/10/08 08:44:15;;;;;;;;;;;23.10;52.00;;;;;;1565865;74;774;-69
2022/10/08 08:46:18;;;;;;;;;;;23.20;52.00;;;;;;1574276;74;1131;-68
2022/10/08 08:48:23;;;;;;;;;;;23.10;52.00;;;;;;1565020;74;751;-69
2022/10/08 08:50:27;;;;;;;;;;;23.10;51.90;;;;;;1568855;74;741;-69
2022/10/08 08:52:32;;;;;;;;;;;23.20;52.00;;;;;;1561665;75;1797;-68
2022/10/08 08:54:33;;;;;;;;;;;23.20;52.00;;;;;;1566115;74;1928;-69
2022/10/08 08:56:35;;;;;;;;;;;23.20;52.00;;;;;;1568738;74;1167;-69
2022/10/08 08:58:57;;;;;;;;;;;23.10;52.00;;;;;;1561458;75;938;-70
2022/10/08 09:00:58;;;;;;;;;;;23.20;52.00;;;;;;1567686;75;1591;-69
2022/10/08 09:03:19;;;;;;;;;;;23.10;51.90;;;;;;1555566;74;790;-68
2022/10/08 09:05:21;;;;;;;;;;;23.10;52.00;;;;;;1563141;74;1534;-69
2022/10/08 09:07:25;;;;;;;;;;;23.20;52.00;;;;;;1564391;75;777;-69
2022/10/08 09:09:43;;;;;;;;;;;23.10;52.10;;;;;;1575362;75;710;-69
2022/10/08 09:11:45;;;;;;;;;;;23.10;52.10;;;;;;1564103;74;723;-69
2022/10/08 09:13:50;;;;;;;;;;;23.10;52.10;;;;;;1577728;75;1941;-69
2022/10/08 09:15:54;;;;;;;;;;;23.10;52.10;;;;;;1564822;74;1165;-69
2022/10/08 09:17:55;;;;;;;;;;;23.10;52.00;;;;;;1568783;75;717;-69
2022/10/08 09:19:57;;;;;;;;;;;23.10;51.90;;;;;;1569370;74;1574;-69
2022/10/08 09:21:59;;;;;;;;;;;23.10;51.90;;;;;;1569021;74;800;-69
2022/10/08 09:24:01;;;;;;;;;;;23.10;51.90;;;;;;1566275;75;832;-69
2022/10/08 09:26:05;;;;;;;;;;;23.10;52.00;;;;;;1560207;75;1152;-69
2022/10/08 09:28:07;;;;;;;;;;;23.20;52.00;;;;;;1554125;74;1304;-69
2022/10/08 09:30:25;;;;;;;;;;;23.10;52.00;;;;;;1559900;74;791;-68
2022/10/08 09:32:27;;;;;;;;;;;23.10;52.00;;;;;;1566278;74;770;-68
2022/10/08 09:34:29;;;;;;;;;;;23.10;52.00;;;;;;1571307;74;1963;-68
2022/10/08 09:36:33;;;;;;;;;;;23.10;52.00;;;;;;1566837;74;1147;-68
2022/10/08 09:38:35;;;;;;;;;;;23.10;52.10;;;;;;1564423;75;758;-68
2022/10/08 09:40:37;;;;;;;;;;;23.10;52.10;;;;;;1567969;74;741;-68
2022/10/08 09:42:39;;;;;;;;;;;23.20;52.00;;;;;;1560958;75;673;-69
2022/10/08 09:44:50;;;;;;;;;;;23.10;52.00;;;;;;1534537;76;806;-70
2022/10/08 09:46:54;;;;;;;;;;;23.10;52.00;;;;;;1567403;75;1144;-69
2022/10/08 09:48:56;;;;;;;;;;;23.10;52.10;;;;;;1562008;74;2003;-70
2022/10/08 09:50:59;;;;;;;;;;;23.10;52.10;;;;;;1551857;75;697;-69
2022/10/08 09:53:01;;;;;;;;;;;23.20;52.10;;;;;;1561165;75;731;-68
2022/10/08 09:55:04;;;;;;;;;;;23.10;52.00;;;;;;1567073;75;1936;-69
2022/10/08 09:57:06;;;;;;;;;;;23.20;52.10;;;;;;1554552;74;1709;-69
2022/10/08 09:59:09;;;;;;;;;;;23.10;52.00;;;;;;1558698;75;886;-68
2022/10/08 10:01:15;;;;;;;;;;;23.10;52.00;;;;;;1553301;75;1839;-69
2022/10/08 10:03:17;;;;;;;;;;;23.10;52.00;;;;;;1557795;75;1447;-69
2022/10/08 10:05:21;;;;;;;;;;;23.10;52.00;;;;;;1556020;74;1153;-69
2022/10/08 10:07:23;;;;;;;;;;;23.10;52.10;;;;;;1556252;75;792;-68
2022/10/08 10:09:29;;;;;;;;;;;23.10;52.10;;;;;;1559780;74;798;-67
2022/10/08 10:11:32;;;;;;;;;;;23.10;52.00;;;;;;1560269;75;754;-68
2022/10/08 10:13:35;;;;;;;;;;;23.20;52.00;;;;;;1554237;75;715;-68
2022/10/08 10:15:44;;;;;;;;;;;23.20;52.00;;;;;;1557589;75;1922;-68
2022/10/08 10:17:48;;;;;;;;;;;23.10;52.10;;;;;;1557972;75;725;-68
2022/10/08 10:19:58;;;;;;;;;;;23.10;52.20;;;;;;1564422;75;1800;-68
2022/10/08 10:22:01;;;;;;;;;;;23.10;52.20;;;;;;1555967;75;1775;-68
2022/10/08 10:24:05;;;;;;;;;;;23.10;52.30;;;;;;1560623;74;1039;-68
2022/10/08 10:26:14;;;;;;;;;;;23.10;52.20;;;;;;1560589;75;1150;-69
2022/10/08 10:28:26;;;;;;;;;;;23.10;52.20;;;;;;1556713;74;1835;-69
2022/10/08 10:30:28;;;;;;;;;;;23.20;52.10;;;;;;1549264;75;1682;-71
2022/10/08 10:32:32;;;;;;;;;;;23.10;52.20;;;;;;1565549;75;714;-65
2022/10/08 10:34:35;;;;;;;;;;;23.20;52.30;;;;;;1564192;75;1932;-67
2022/10/08 10:36:39;;;;;;;;;;;23.10;52.30;;;;;;1579444;75;1136;-67
2022/10/08 10:38:43;;;;;;;;;;;23.10;52.40;;;;;;1568071;74;1732;-69
2022/10/08 10:40:46;;;;;;;;;;;23.20;52.30;;;;;;1570920;74;1241;-67
2022/10/08 10:42:50;;;;;;;;;;;23.20;52.10;;;;;;1557339;75;691;-68
2022/10/08 10:44:54;;;;;;;;;;;23.10;52.30;;;;;;1562608;75;1561;-67
2022/10/08 10:46:57;;;;;;;;;;;23.00;52.20;;;;;;1572491;75;1070;-68
2022/10/08 10:48:59;;;;;;;;;;;23.00;52.30;;;;;;1569521;75;707;-68
2022/10/08 10:51:12;;;;;;;;;;;23.00;52.30;;;;;;1569452;75;758;-68
2022/10/08 10:53:34;;;;;;;;;;;23.00;52.30;;;;;;1567391;74;703;-68
2022/10/08 10:55:53;;;;;;;;;;;23.00;52.40;;;;;;1564420;75;2102;-68
2022/10/08 10:58:02;;;;;;;;;;;23.00;52.50;;;;;;1563229;75;1889;-68
2022/10/08 11:00:18;;;;;;;;;;;22.90;52.50;;;;;;1574015;75;1801;-68
2022/10/08 11:02:21;;;;;;;;;;;23.00;52.40;;;;;;1490561;75;1108;-68
2022/10/08 11:04:43;;;;;;;;;;;23.00;52.40;;;;;;1572180;75;617;-67
2022/10/08 11:06:46;;;;;;;;;;;23.00;52.40;;;;;;1565204;75;1114;-68
2022/10/08 11:09:08;;;;;;;;;;;22.90;52.40;;;;;;1566570;75;2067;-68
2022/10/08 11:11:11;;;;;;;;;;;22.90;52.40;;;;;;1547953;75;698;-68
2022/10/08 11:13:21;;;;;;;;;;;22.80;52.40;;;;;;1571026;75;1579;-68
2022/10/08 11:15:33;;;;;;;;;;;22.70;52.60;;;;;;1570496;74;1934;-68
2022/10/08 11:17:53;;;;;;;;;;;22.70;52.70;;;;;;1567738;75;753;-69
2022/10/08 11:20:00;;;;;;;;;;;22.60;52.70;;;;;;1566589;75;822;-68
2022/10/08 11:22:06;;;;;;;;;;;22.60;52.90;;;;;;1568629;75;1879;-69
2022/10/08 11:24:12;;;;;;;;;;;22.60;52.90;;;;;;1566691;75;1923;-69
2022/10/08 11:26:22;;;;;;;;;;;22.50;53.00;;;;;;1568962;74;2001;-68
2022/10/08 11:28:35;;;;;;;;;;;22.50;53.00;;;;;;1562837;74;904;-69
2022/10/08 11:30:45;;;;;;;;;;;22.50;53.10;;;;;;1565898;75;696;-69
2022/10/08 11:32:51;;;;;;;;;;;22.50;53.10;;;;;;1573497;75;1634;-68
2022/10/08 11:34:56;;;;;;;;;;;22.50;53.20;;;;;;1564557;75;1933;-69
2022/10/08 11:37:08;;;;;;;;;;;22.40;53.20;;;;;;1547511;75;1716;-68
2022/10/08 11:39:14;;;;;;;;;;;22.30;53.30;;;;;;1561445;75;928;-69
2022/10/08 11:41:18;;;;;;;;;;;22.40;53.40;;;;;;1571351;74;1571;-69
2022/10/08 11:43:33;;;;;;;;;;;22.30;53.40;;;;;;1568514;75;1820;-69
2022/10/08 11:45:38;;;;;;;;;;;22.30;53.60;;;;;;1563614;74;1156;-69
2022/10/08 11:47:45;;;;;;;;;;;22.40;53.60;;;;;;1563500;74;1816;-68
2022/10/08 11:49:48;;;;;;;;;;;22.30;53.70;;;;;;1576237;74;736;-70
2022/10/08 11:51:51;;;;;;;;;;;22.40;53.80;;;;;;1564450;75;713;-68
2022/10/08 11:54:12;;;;;;;;;;;22.30;53.90;;;;;;1563466;75;1541;-70
2022/10/08 11:56:13;;;;;;;;;;;22.40;53.90;;;;;;1569500;75;1942;-69
2022/10/08 11:58:19;;;;;;;;;;;22.30;53.90;;;;;;1539818;76;1133;-69
2022/10/08 12:00:22;;;;;;;;;;;22.30;53.90;;;;;;1557890;75;1731;-70
2022/10/08 12:02:36;;;;;;;;;;;22.30;54.00;;;;;;1569502;75;1862;-71
2022/10/08 12:04:38;;;;;;;;;;;22.30;54.10;;;;;;1567325;75;1980;-69
2022/10/08 12:06:39;;;;;;;;;;;22.30;54.10;;;;;;1563521;74;1140;-69
2022/10/08 12:08:51;;;;;;;;;;;22.30;54.10;;;;;;1590405;74;1591;-68
2022/10/08 12:10:53;;;;;;;;;;;22.30;54.10;;;;;;1589928;74;907;-68
2022/10/08 12:13:01;;;;;;;;;;;22.30;54.00;;;;;;1549920;75;785;-68
2022/10/08 12:15:00;;;;;;;;;;;22.40;54.00;;;;;;1569459;74;1905;-67
2022/10/08 12:17:07;;;;;;;;;;;22.50;54.00;;;;;;1577520;74;1177;-68